Terminal Aerodrome Forecast
Issued by NWS Mobile, AL

Home | Current Version | Previous Version | Text Only | Print | Product List | Glossary On
Versions: 1 2 3 4 5 6 7 8 9 10 11 12 13 14 15 16 17 18 19 20 21 22 23 24 25 26 27
000
FTUS44 KMOB 251740
TAFMOB
TAF
KMOB 251740Z 2518/2618 16008KT 5SM BR VCSH SCT013 BKN040 OVC100
      TEMPO 2518/2522 5SM TSRA BKN030CB
     FM260100 13008KT P6SM VCSH BKN035
     FM260700 14005KT 5SM BR VCSH BKN025
     FM261400 15012KT P6SM VCSH BKN025 PROB30 2614/2618 5SM TSRA
      BKN025CB=

USA.gov is the U.S. government's official web portal to all federal, state and local government web resources and services.